sensor_id;sensor_type;location;lat;lon;timestamp;P1;durP1;ratioP1;P2;durP2;ratioP2
6661;SDS011;3367;48.714;8.994;2023-03-01T00:00:00;21.27;;;13.07;;
6661;SDS011;3367;48.714;8.994;2023-03-01T00:02:28;20.40;;;12.70;;
6661;SDS011;3367;48.714;8.994;2023-03-01T00:04:55;22.77;;;12.00;;
6661;SDS011;3367;48.714;8.994;2023-03-01T00:07:21;17.63;;;11.30;;
6661;SDS011;3367;48.714;8.994;2023-03-01T00:09:49;18.20;;;10.67;;
6661;SDS011;3367;48.714;8.994;2023-03-01T00:12:16;24.47;;;13.23;;
6661;SDS011;3367;48.714;8.994;2023-03-01T00:14:43;21.30;;;12.63;;
6661;SDS011;3367;48.714;8.994;2023-03-01T00:17:09;22.63;;;12.33;;
6661;SDS011;3367;48.714;8.994;2023-03-01T00:19:36;19.47;;;11.50;;
6661;SDS011;3367;48.714;8.994;2023-03-01T00:22:03;22.60;;;12.87;;
6661;SDS011;3367;48.714;8.994;2023-03-01T00:24:30;18.20;;;11.20;;
6661;SDS011;3367;48.714;8.994;2023-03-01T00:26:58;18.80;;;12.10;;
6661;SDS011;3367;48.714;8.994;2023-03-01T00:29:25;23.70;;;11.43;;
6661;SDS011;3367;48.714;8.994;2023-03-01T00:31:51;21.90;;;11.90;;
6661;SDS011;3367;48.714;8.994;2023-03-01T00:34:18;21.03;;;12.33;;
6661;SDS011;3367;48.714;8.994;2023-03-01T00:36:45;20.77;;;11.47;;
6661;SDS011;3367;48.714;8.994;2023-03-01T00:39:12;18.23;;;11.77;;
6661;SDS011;3367;48.714;8.994;2023-03-01T00:41:40;19.70;;;11.40;;
6661;SDS011;3367;48.714;8.994;2023-03-01T00:44:09;19.83;;;11.60;;
6661;SDS011;3367;48.714;8.994;2023-03-01T00:46:36;21.27;;;13.37;;
6661;SDS011;3367;48.714;8.994;2023-03-01T00:49:03;20.57;;;12.00;;
6661;SDS011;3367;48.714;8.994;2023-03-01T00:51:30;23.30;;;11.50;;
6661;SDS011;3367;48.714;8.994;2023-03-01T00:53:58;24.73;;;11.07;;
6661;SDS011;3367;48.714;8.994;2023-03-01T00:56:27;20.53;;;11.97;;
6661;SDS011;3367;48.714;8.994;2023-03-01T00:58:55;23.53;;;12.13;;
6661;SDS011;3367;48.714;8.994;2023-03-01T01:01:24;24.57;;;12.93;;
6661;SDS011;3367;48.714;8.994;2023-03-01T01:03:53;18.73;;;10.50;;
6661;SDS011;3367;48.714;8.994;2023-03-01T01:06:22;22.20;;;11.50;;
6661;SDS011;3367;48.714;8.994;2023-03-01T01:08:50;26.47;;;12.03;;
6661;SDS011;3367;48.714;8.994;2023-03-01T01:11:18;22.23;;;12.03;;
6661;SDS011;3367;48.714;8.994;2023-03-01T01:13:46;22.00;;;11.83;;
6661;SDS011;3367;48.714;8.994;2023-03-01T01:16:14;18.33;;;11.83;;
6661;SDS011;3367;48.714;8.994;2023-03-01T01:18:43;22.27;;;11.50;;
6661;SDS011;3367;48.714;8.994;2023-03-01T01:21:10;21.73;;;12.80;;
6661;SDS011;3367;48.714;8.994;2023-03-01T01:23:38;22.20;;;12.70;;
6661;SDS011;3367;48.714;8.994;2023-03-01T01:26:07;23.40;;;12.87;;
6661;SDS011;3367;48.714;8.994;2023-03-01T01:28:36;18.60;;;11.63;;
6661;SDS011;3367;48.714;8.994;2023-03-01T01:31:02;23.00;;;11.97;;
6661;SDS011;3367;48.714;8.994;2023-03-01T01:33:30;22.60;;;12.27;;
6661;SDS011;3367;48.714;8.994;2023-03-01T01:35:58;30.33;;;13.63;;
6661;SDS011;3367;48.714;8.994;2023-03-01T01:38:25;27.40;;;14.87;;
6661;SDS011;3367;48.714;8.994;2023-03-01T01:40:52;25.10;;;14.40;;
6661;SDS011;3367;48.714;8.994;2023-03-01T01:43:19;23.43;;;13.57;;
6661;SDS011;3367;48.714;8.994;2023-03-01T01:45:48;22.30;;;13.23;;
6661;SDS011;3367;48.714;8.994;2023-03-01T01:48:19;26.23;;;14.33;;
6661;SDS011;3367;48.714;8.994;2023-03-01T01:50:50;21.80;;;13.97;;
6661;SDS011;3367;48.714;8.994;2023-03-01T01:53:22;28.87;;;15.07;;
6661;SDS011;3367;48.714;8.994;2023-03-01T01:55:51;26.20;;;12.33;;
6661;SDS011;3367;48.714;8.994;2023-03-01T01:58:22;24.87;;;14.27;;
6661;SDS011;3367;48.714;8.994;2023-03-01T02:00:52;25.57;;;13.93;;
6661;SDS011;3367;48.714;8.994;2023-03-01T02:03:20;26.80;;;13.83;;
6661;SDS011;3367;48.714;8.994;2023-03-01T02:05:55;24.10;;;13.50;;
6661;SDS011;3367;48.714;8.994;2023-03-01T02:08:28;24.80;;;14.20;;
6661;SDS011;3367;48.714;8.994;2023-03-01T02:10:57;25.37;;;13.10;;
6661;SDS011;3367;48.714;8.994;2023-03-01T02:13:25;24.97;;;13.53;;
6661;SDS011;3367;48.714;8.994;2023-03-01T02:15:52;24.93;;;14.47;;
6661;SDS011;3367;48.714;8.994;2023-03-01T02:18:20;29.83;;;14.37;;
6661;SDS011;3367;48.714;8.994;2023-03-01T02:20:52;23.77;;;13.23;;
6661;SDS011;3367;48.714;8.994;2023-03-01T02:23:29;29.20;;;14.17;;
6661;SDS011;3367;48.714;8.994;2023-03-01T02:26:00;21.20;;;12.07;;
6661;SDS011;3367;48.714;8.994;2023-03-01T02:28:31;27.80;;;14.00;;
6661;SDS011;3367;48.714;8.994;2023-03-01T02:30:59;18.63;;;13.17;;
6661;SDS011;3367;48.714;8.994;2023-03-01T02:33:45;24.70;;;13.80;;
6661;SDS011;3367;48.714;8.994;2023-03-01T02:36:14;30.03;;;15.07;;
6661;SDS011;3367;48.714;8.994;2023-03-01T02:38:43;21.10;;;11.77;;
6661;SDS011;3367;48.714;8.994;2023-03-01T02:41:11;26.93;;;13.93;;
6661;SDS011;3367;48.714;8.994;2023-03-01T02:43:42;22.03;;;13.60;;
6661;SDS011;3367;48.714;8.994;2023-03-01T02:46:13;22.47;;;13.00;;
6661;SDS011;3367;48.714;8.994;2023-03-01T02:48:43;26.37;;;13.03;;
6661;SDS011;3367;48.714;8.994;2023-03-01T02:51:14;24.33;;;13.13;;
6661;SDS011;3367;48.714;8.994;2023-03-01T02:53:53;20.93;;;13.70;;
6661;SDS011;3367;48.714;8.994;2023-03-01T02:56:30;22.30;;;12.77;;
6661;SDS011;3367;48.714;8.994;2023-03-01T02:58:58;22.30;;;13.37;;
6661;SDS011;3367;48.714;8.994;2023-03-01T03:01:26;29.63;;;13.93;;
6661;SDS011;3367;48.714;8.994;2023-03-01T03:04:01;21.53;;;13.77;;
6661;SDS011;3367;48.714;8.994;2023-03-01T03:06:28;24.10;;;13.10;;
6661;SDS011;3367;48.714;8.994;2023-03-01T03:08:55;26.03;;;12.90;;
6661;SDS011;3367;48.714;8.994;2023-03-01T03:11:22;23.47;;;13.70;;
6661;SDS011;3367;48.714;8.994;2023-03-01T03:13:49;22.00;;;12.80;;
6661;SDS011;3367;48.714;8.994;2023-03-01T03:16:18;22.40;;;13.73;;
6661;SDS011;3367;48.714;8.994;2023-03-01T03:18:45;21.67;;;13.57;;
6661;SDS011;3367;48.714;8.994;2023-03-01T03:21:12;25.10;;;14.10;;
6661;SDS011;3367;48.714;8.994;2023-03-01T03:23:41;19.07;;;12.37;;
6661;SDS011;3367;48.714;8.994;2023-03-01T03:26:07;24.03;;;13.07;;
6661;SDS011;3367;48.714;8.994;2023-03-01T03:28:39;26.43;;;13.50;;
6661;SDS011;3367;48.714;8.994;2023-03-01T03:31:06;23.70;;;13.43;;
6661;SDS011;3367;48.714;8.994;2023-03-01T03:33:35;22.73;;;12.70;;
6661;SDS011;3367;48.714;8.994;2023-03-01T03:36:03;22.70;;;13.40;;
6661;SDS011;3367;48.714;8.994;2023-03-01T03:38:30;23.40;;;14.53;;
6661;SDS011;3367;48.714;8.994;2023-03-01T03:41:00;25.00;;;14.33;;
6661;SDS011;3367;48.714;8.994;2023-03-01T03:43:30;21.20;;;13.00;;
6661;SDS011;3367;48.714;8.994;2023-03-01T03:45:58;21.73;;;13.20;;
6661;SDS011;3367;48.714;8.994;2023-03-01T03:48:25;22.93;;;13.00;;
6661;SDS011;3367;48.714;8.994;2023-03-01T03:50:54;24.47;;;13.63;;
6661;SDS011;3367;48.714;8.994;2023-03-01T03:53:23;23.40;;;13.90;;
6661;SDS011;3367;48.714;8.994;2023-03-01T03:55:51;24.70;;;13.27;;
6661;SDS011;3367;48.714;8.994;2023-03-01T03:58:18;27.03;;;14.53;;
6661;SDS011;3367;48.714;8.994;2023-03-01T04:00:47;24.57;;;14.23;;
6661;SDS011;3367;48.714;8.994;2023-03-01T04:03:15;22.80;;;13.40;;
6661;SDS011;3367;48.714;8.994;2023-03-01T04:05:45;24.10;;;13.30;;
6661;SDS011;3367;48.714;8.994;2023-03-01T04:08:13;26.00;;;13.57;;
6661;SDS011;3367;48.714;8.994;2023-03-01T04:10:41;26.60;;;15.40;;
6661;SDS011;3367;48.714;8.994;2023-03-01T04:13:10;22.27;;;12.90;;
6661;SDS011;3367;48.714;8.994;2023-03-01T04:15:39;25.67;;;14.23;;
6661;SDS011;3367;48.714;8.994;2023-03-01T04:18:08;23.50;;;13.47;;
6661;SDS011;3367;48.714;8.994;2023-03-01T04:20:38;24.60;;;13.73;;
6661;SDS011;3367;48.714;8.994;2023-03-01T04:23:05;19.20;;;13.17;;
6661;SDS011;3367;48.714;8.994;2023-03-01T04:25:42;23.73;;;13.43;;
6661;SDS011;3367;48.714;8.994;2023-03-01T04:28:14;25.80;;;13.00;;
6661;SDS011;3367;48.714;8.994;2023-03-01T04:30:41;32.13;;;14.20;;
6661;SDS011;3367;48.714;8.994;2023-03-01T04:33:08;20.77;;;13.00;;
6661;SDS011;3367;48.714;8.994;2023-03-01T04:35:36;23.20;;;13.00;;
6661;SDS011;3367;48.714;8.994;2023-03-01T04:38:04;26.13;;;14.23;;
6661;SDS011;3367;48.714;8.994;2023-03-01T04:40:31;24.20;;;14.13;;
6661;SDS011;3367;48.714;8.994;2023-03-01T04:42:59;20.90;;;13.60;;
6661;SDS011;3367;48.714;8.994;2023-03-01T04:45:27;26.33;;;13.47;;
6661;SDS011;3367;48.714;8.994;2023-03-01T04:47:53;27.23;;;14.63;;
6661;SDS011;3367;48.714;8.994;2023-03-01T04:50:23;23.87;;;14.00;;
6661;SDS011;3367;48.714;8.994;2023-03-01T04:52:50;27.33;;;14.23;;
6661;SDS011;3367;48.714;8.994;2023-03-01T04:55:17;26.43;;;14.30;;
6661;SDS011;3367;48.714;8.994;2023-03-01T04:57:44;25.10;;;14.77;;
6661;SDS011;3367;48.714;8.994;2023-03-01T05:00:13;26.20;;;14.07;;
6661;SDS011;3367;48.714;8.994;2023-03-01T05:02:47;26.07;;;14.03;;
6661;SDS011;3367;48.714;8.994;2023-03-01T05:05:18;27.93;;;14.63;;
6661;SDS011;3367;48.714;8.994;2023-03-01T05:07:46;25.53;;;14.03;;
6661;SDS011;3367;48.714;8.994;2023-03-01T05:10:13;23.53;;;14.50;;
6661;SDS011;3367;48.714;8.994;2023-03-01T05:12:40;24.40;;;13.73;;
6661;SDS011;3367;48.714;8.994;2023-03-01T05:15:07;26.23;;;13.30;;
6661;SDS011;3367;48.714;8.994;2023-03-01T05:17:35;28.23;;;14.80;;
6661;SDS011;3367;48.714;8.994;2023-03-01T05:20:02;25.40;;;14.60;;
6661;SDS011;3367;48.714;8.994;2023-03-01T05:22:32;24.20;;;14.70;;
6661;SDS011;3367;48.714;8.994;2023-03-01T05:24:59;27.43;;;14.80;;
6661;SDS011;3367;48.714;8.994;2023-03-01T05:27:26;32.57;;;15.73;;
6661;SDS011;3367;48.714;8.994;2023-03-01T05:29:54;28.40;;;14.30;;
6661;SDS011;3367;48.714;8.994;2023-03-01T05:32:21;30.43;;;15.10;;
6661;SDS011;3367;48.714;8.994;2023-03-01T05:34:49;29.77;;;15.13;;
6661;SDS011;3367;48.714;8.994;2023-03-01T05:37:17;28.97;;;15.07;;
6661;SDS011;3367;48.714;8.994;2023-03-01T05:39:44;26.77;;;15.10;;
6661;SDS011;3367;48.714;8.994;2023-03-01T05:42:11;26.40;;;14.37;;
6661;SDS011;3367;48.714;8.994;2023-03-01T05:44:38;28.33;;;14.70;;
6661;SDS011;3367;48.714;8.994;2023-03-01T05:47:05;26.03;;;14.37;;
6661;SDS011;3367;48.714;8.994;2023-03-01T05:49:32;27.07;;;14.67;;
6661;SDS011;3367;48.714;8.994;2023-03-01T05:52:01;24.70;;;14.60;;
6661;SDS011;3367;48.714;8.994;2023-03-01T05:54:27;21.13;;;13.13;;
6661;SDS011;3367;48.714;8.994;2023-03-01T05:56:54;26.97;;;14.80;;
6661;SDS011;3367;48.714;8.994;2023-03-01T05:59:21;24.03;;;14.03;;
6661;SDS011;3367;48.714;8.994;2023-03-01T06:01:48;35.00;;;15.20;;
6661;SDS011;3367;48.714;8.994;2023-03-01T06:04:15;23.40;;;14.10;;
6661;SDS011;3367;48.714;8.994;2023-03-01T06:06:41;24.13;;;14.57;;
6661;SDS011;3367;48.714;8.994;2023-03-01T06:09:09;27.23;;;14.90;;
6661;SDS011;3367;48.714;8.994;2023-03-01T06:11:36;26.77;;;15.07;;
6661;SDS011;3367;48.714;8.994;2023-03-01T06:14:03;26.70;;;16.20;;
6661;SDS011;3367;48.714;8.994;2023-03-01T06:16:32;27.27;;;16.50;;
6661;SDS011;3367;48.714;8.994;2023-03-01T06:18:59;26.83;;;15.37;;
6661;SDS011;3367;48.714;8.994;2023-03-01T06:21:26;27.80;;;14.80;;
6661;SDS011;3367;48.714;8.994;2023-03-01T06:23:52;25.10;;;14.87;;
6661;SDS011;3367;48.714;8.994;2023-03-01T06:26:20;25.80;;;14.20;;
6661;SDS011;3367;48.714;8.994;2023-03-01T06:28:47;24.23;;;15.20;;
6661;SDS011;3367;48.714;8.994;2023-03-01T06:31:14;27.33;;;16.40;;
6661;SDS011;3367;48.714;8.994;2023-03-01T06:33:41;28.43;;;14.67;;
6661;SDS011;3367;48.714;8.994;2023-03-01T06:36:09;30.57;;;16.00;;
6661;SDS011;3367;48.714;8.994;2023-03-01T06:38:36;27.30;;;14.83;;
6661;SDS011;3367;48.714;8.994;2023-03-01T06:41:05;29.30;;;14.80;;
6661;SDS011;3367;48.714;8.994;2023-03-01T06:43:34;24.70;;;14.47;;
6661;SDS011;3367;48.714;8.994;2023-03-01T06:46:03;23.90;;;14.83;;
6661;SDS011;3367;48.714;8.994;2023-03-01T06:48:31;25.27;;;15.30;;
6661;SDS011;3367;48.714;8.994;2023-03-01T06:50:58;25.83;;;15.50;;
6661;SDS011;3367;48.714;8.994;2023-03-01T06:53:26;25.80;;;15.90;;
6661;SDS011;3367;48.714;8.994;2023-03-01T06:55:54;25.33;;;14.50;;
6661;SDS011;3367;48.714;8.994;2023-03-01T06:58:22;34.57;;;15.73;;
6661;SDS011;3367;48.714;8.994;2023-03-01T07:00:51;31.53;;;15.60;;
6661;SDS011;3367;48.714;8.994;2023-03-01T07:03:17;25.43;;;15.40;;
6661;SDS011;3367;48.714;8.994;2023-03-01T07:05:44;24.10;;;14.80;;
6661;SDS011;3367;48.714;8.994;2023-03-01T07:08:11;25.57;;;13.83;;
6661;SDS011;3367;48.714;8.994;2023-03-01T07:10:37;28.63;;;15.93;;
6661;SDS011;3367;48.714;8.994;2023-03-01T07:13:04;27.90;;;15.90;;
6661;SDS011;3367;48.714;8.994;2023-03-01T07:15:32;26.37;;;15.17;;
6661;SDS011;3367;48.714;8.994;2023-03-01T07:18:00;27.83;;;15.60;;
6661;SDS011;3367;48.714;8.994;2023-03-01T07:20:27;24.67;;;13.93;;
6661;SDS011;3367;48.714;8.994;2023-03-01T07:22:54;22.87;;;13.73;;
6661;SDS011;3367;48.714;8.994;2023-03-01T07:25:23;25.70;;;14.00;;
6661;SDS011;3367;48.714;8.994;2023-03-01T07:27:50;27.03;;;14.10;;
6661;SDS011;3367;48.714;8.994;2023-03-01T07:30:17;25.47;;;16.03;;
6661;SDS011;3367;48.714;8.994;2023-03-01T07:32:44;31.03;;;14.43;;
6661;SDS011;3367;48.714;8.994;2023-03-01T07:35:13;26.43;;;15.20;;
6661;SDS011;3367;48.714;8.994;2023-03-01T07:37:40;26.80;;;14.07;;
6661;SDS011;3367;48.714;8.994;2023-03-01T07:40:07;24.60;;;13.93;;
6661;SDS011;3367;48.714;8.994;2023-03-01T07:42:36;27.33;;;14.50;;
6661;SDS011;3367;48.714;8.994;2023-03-01T07:45:03;28.47;;;15.63;;
6661;SDS011;3367;48.714;8.994;2023-03-01T07:47:31;24.90;;;13.63;;
6661;SDS011;3367;48.714;8.994;2023-03-01T07:49:58;29.73;;;16.17;;
6661;SDS011;3367;48.714;8.994;2023-03-01T07:52:27;23.23;;;14.10;;
6661;SDS011;3367;48.714;8.994;2023-03-01T07:54:54;24.47;;;15.10;;
6661;SDS011;3367;48.714;8.994;2023-03-01T07:57:21;27.17;;;16.00;;
6661;SDS011;3367;48.714;8.994;2023-03-01T07:59:48;24.90;;;14.37;;
6661;SDS011;3367;48.714;8.994;2023-03-01T08:02:14;25.53;;;14.23;;
6661;SDS011;3367;48.714;8.994;2023-03-01T08:04:41;24.47;;;16.27;;
6661;SDS011;3367;48.714;8.994;2023-03-01T08:07:08;27.67;;;14.77;;
6661;SDS011;3367;48.714;8.994;2023-03-01T08:09:36;24.83;;;15.20;;
6661;SDS011;3367;48.714;8.994;2023-03-01T08:12:03;28.53;;;15.67;;
6661;SDS011;3367;48.714;8.994;2023-03-01T08:14:31;26.67;;;15.23;;
6661;SDS011;3367;48.714;8.994;2023-03-01T08:16:58;25.07;;;16.03;;
6661;SDS011;3367;48.714;8.994;2023-03-01T08:19:24;26.87;;;16.20;;
6661;SDS011;3367;48.714;8.994;2023-03-01T08:21:53;26.47;;;14.53;;
6661;SDS011;3367;48.714;8.994;2023-03-01T08:24:19;29.10;;;15.00;;
6661;SDS011;3367;48.714;8.994;2023-03-01T08:26:47;22.27;;;14.03;;
6661;SDS011;3367;48.714;8.994;2023-03-01T08:29:15;30.80;;;15.70;;
6661;SDS011;3367;48.714;8.994;2023-03-01T08:31:42;24.27;;;15.33;;
6661;SDS011;3367;48.714;8.994;2023-03-01T08:34:09;29.00;;;16.20;;
6661;SDS011;3367;48.714;8.994;2023-03-01T08:36:38;28.27;;;16.03;;
6661;SDS011;3367;48.714;8.994;2023-03-01T08:39:07;29.97;;;16.03;;
6661;SDS011;3367;48.714;8.994;2023-03-01T08:41:34;28.70;;;15.53;;
6661;SDS011;3367;48.714;8.994;2023-03-01T08:44:03;29.07;;;15.47;;
6661;SDS011;3367;48.714;8.994;2023-03-01T08:46:31;26.77;;;16.07;;
6661;SDS011;3367;48.714;8.994;2023-03-01T08:48:59;26.50;;;15.20;;
6661;SDS011;3367;48.714;8.994;2023-03-01T08:51:26;23.07;;;14.87;;
6661;SDS011;3367;48.714;8.994;2023-03-01T08:53:54;30.30;;;15.23;;
6661;SDS011;3367;48.714;8.994;2023-03-01T08:56:20;26.50;;;14.93;;
6661;SDS011;3367;48.714;8.994;2023-03-01T08:58:48;22.47;;;14.63;;
6661;SDS011;3367;48.714;8.994;2023-03-01T09:01:17;31.07;;;15.90;;
6661;SDS011;3367;48.714;8.994;2023-03-01T09:03:45;27.20;;;14.90;;
6661;SDS011;3367;48.714;8.994;2023-03-01T09:06:13;26.17;;;15.40;;
6661;SDS011;3367;48.714;8.994;2023-03-01T09:08:41;27.90;;;15.07;;
6661;SDS011;3367;48.714;8.994;2023-03-01T09:11:10;25.10;;;15.77;;
6661;SDS011;3367;48.714;8.994;2023-03-01T09:13:38;21.67;;;14.03;;
6661;SDS011;3367;48.714;8.994;2023-03-01T09:16:06;29.30;;;14.77;;
6661;SDS011;3367;48.714;8.994;2023-03-01T09:18:35;24.70;;;14.67;;
6661;SDS011;3367;48.714;8.994;2023-03-01T09:21:02;28.93;;;14.50;;
6661;SDS011;3367;48.714;8.994;2023-03-01T09:23:32;24.77;;;15.80;;
6661;SDS011;3367;48.714;8.994;2023-03-01T09:25:59;26.17;;;15.00;;
6661;SDS011;3367;48.714;8.994;2023-03-01T09:28:26;25.90;;;16.30;;
6661;SDS011;3367;48.714;8.994;2023-03-01T09:30:52;25.23;;;15.60;;
6661;SDS011;3367;48.714;8.994;2023-03-01T09:33:19;21.87;;;14.07;;
6661;SDS011;3367;48.714;8.994;2023-03-01T09:35:47;33.10;;;16.53;;
6661;SDS011;3367;48.714;8.994;2023-03-01T09:38:14;26.93;;;14.73;;
6661;SDS011;3367;48.714;8.994;2023-03-01T09:40:43;27.30;;;16.00;;
6661;SDS011;3367;48.714;8.994;2023-03-01T09:43:15;29.87;;;16.07;;
6661;SDS011;3367;48.714;8.994;2023-03-01T09:45:47;23.90;;;15.23;;
6661;SDS011;3367;48.714;8.994;2023-03-01T09:48:18;29.03;;;16.23;;
6661;SDS011;3367;48.714;8.994;2023-03-01T09:50:49;30.27;;;16.00;;
6661;SDS011;3367;48.714;8.994;2023-03-01T09:53:18;32.13;;;15.30;;
6661;SDS011;3367;48.714;8.994;2023-03-01T09:55:48;29.10;;;14.77;;
6661;SDS011;3367;48.714;8.994;2023-03-01T09:58:29;30.30;;;16.67;;
6661;SDS011;3367;48.714;8.994;2023-03-01T10:01:06;30.37;;;16.20;;
6661;SDS011;3367;48.714;8.994;2023-03-01T10:03:48;29.80;;;14.97;;
6661;SDS011;3367;48.714;8.994;2023-03-01T10:06:26;23.10;;;14.07;;
6661;SDS011;3367;48.714;8.994;2023-03-01T10:08:54;25.80;;;14.70;;
6661;SDS011;3367;48.714;8.994;2023-03-01T10:11:24;26.53;;;15.10;;
6661;SDS011;3367;48.714;8.994;2023-03-01T10:13:55;25.10;;;13.80;;
6661;SDS011;3367;48.714;8.994;2023-03-01T10:16:28;25.17;;;16.07;;
6661;SDS011;3367;48.714;8.994;2023-03-01T10:19:05;26.23;;;16.67;;
6661;SDS011;3367;48.714;8.994;2023-03-01T10:21:41;30.67;;;16.77;;
6661;SDS011;3367;48.714;8.994;2023-03-01T10:24:12;28.77;;;17.07;;
6661;SDS011;3367;48.714;8.994;2023-03-01T10:26:44;23.70;;;15.03;;
6661;SDS011;3367;48.714;8.994;2023-03-01T10:29:19;24.97;;;15.40;;
6661;SDS011;3367;48.714;8.994;2023-03-01T10:31:51;25.13;;;14.30;;
6661;SDS011;3367;48.714;8.994;2023-03-01T10:34:20;23.90;;;14.80;;
6661;SDS011;3367;48.714;8.994;2023-03-01T10:36:55;30.40;;;16.67;;
6661;SDS011;3367;48.714;8.994;2023-03-01T10:39:24;21.57;;;13.20;;
6661;SDS011;3367;48.714;8.994;2023-03-01T10:41:53;26.10;;;14.90;;
6661;SDS011;3367;48.714;8.994;2023-03-01T10:47:08;29.00;;;16.63;;
6661;SDS011;3367;48.714;8.994;2023-03-01T10:49:51;25.60;;;16.57;;
6661;SDS011;3367;48.714;8.994;2023-03-01T10:52:25;34.80;;;14.67;;
6661;SDS011;3367;48.714;8.994;2023-03-01T10:54:58;29.50;;;15.73;;
6661;SDS011;3367;48.714;8.994;2023-03-01T10:57:31;26.93;;;15.97;;
6661;SDS011;3367;48.714;8.994;2023-03-01T11:00:16;23.80;;;14.77;;
6661;SDS011;3367;48.714;8.994;2023-03-01T11:02:51;23.20;;;15.47;;
6661;SDS011;3367;48.714;8.994;2023-03-01T11:05:29;23.57;;;15.20;;
6661;SDS011;3367;48.714;8.994;2023-03-01T11:08:00;33.30;;;15.13;;
6661;SDS011;3367;48.714;8.994;2023-03-01T11:10:28;23.17;;;14.20;;
6661;SDS011;3367;48.714;8.994;2023-03-01T11:13:06;21.90;;;14.03;;
6661;SDS011;3367;48.714;8.994;2023-03-01T11:15:39;25.50;;;15.07;;
6661;SDS011;3367;48.714;8.994;2023-03-01T11:18:15;27.83;;;15.60;;
6661;SDS011;3367;48.714;8.994;2023-03-01T11:20:45;26.87;;;13.90;;
6661;SDS011;3367;48.714;8.994;2023-03-01T11:23:15;21.83;;;14.57;;
6661;SDS011;3367;48.714;8.994;2023-03-01T11:25:43;23.47;;;15.20;;
6661;SDS011;3367;48.714;8.994;2023-03-01T11:28:14;27.00;;;15.60;;
6661;SDS011;3367;48.714;8.994;2023-03-01T11:30:44;25.90;;;14.23;;
6661;SDS011;3367;48.714;8.994;2023-03-01T11:33:17;23.83;;;12.70;;
6661;SDS011;3367;48.714;8.994;2023-03-01T11:35:53;20.37;;;13.47;;
6661;SDS011;3367;48.714;8.994;2023-03-01T11:38:28;21.53;;;13.50;;
6661;SDS011;3367;48.714;8.994;2023-03-01T11:40:59;23.67;;;14.63;;
6661;SDS011;3367;48.714;8.994;2023-03-01T11:43:33;24.77;;;14.40;;
6661;SDS011;3367;48.714;8.994;2023-03-01T11:49:17;23.50;;;13.23;;
6661;SDS011;3367;48.714;8.994;2023-03-01T11:52:10;21.90;;;13.70;;
6661;SDS011;3367;48.714;8.994;2023-03-01T11:54:52;22.10;;;13.23;;
6661;SDS011;3367;48.714;8.994;2023-03-01T11:57:32;21.87;;;13.73;;
6661;SDS011;3367;48.714;8.994;2023-03-01T12:00:24;24.93;;;13.83;;
6661;SDS011;3367;48.714;8.994;2023-03-01T12:03:25;25.10;;;13.70;;
6661;SDS011;3367;48.714;8.994;2023-03-01T12:06:05;18.87;;;12.10;;
6661;SDS011;3367;48.714;8.994;2023-03-01T12:08:49;19.93;;;13.30;;
6661;SDS011;3367;48.714;8.994;2023-03-01T12:11:28;20.20;;;13.10;;
6661;SDS011;3367;48.714;8.994;2023-03-01T12:14:09;19.70;;;13.40;;
6661;SDS011;3367;48.714;8.994;2023-03-01T12:16:57;20.57;;;13.57;;
6661;SDS011;3367;48.714;8.994;2023-03-01T12:19:46;24.17;;;13.33;;
6661;SDS011;3367;48.714;8.994;2023-03-01T12:22:29;25.00;;;14.37;;
6661;SDS011;3367;48.714;8.994;2023-03-01T12:25:01;25.43;;;14.20;;
6661;SDS011;3367;48.714;8.994;2023-03-01T12:27:52;24.27;;;13.77;;
6661;SDS011;3367;48.714;8.994;2023-03-01T12:30:28;22.23;;;13.70;;
6661;SDS011;3367;48.714;8.994;2023-03-01T12:33:09;23.80;;;13.93;;
6661;SDS011;3367;48.714;8.994;2023-03-01T12:35:47;23.23;;;13.70;;
6661;SDS011;3367;48.714;8.994;2023-03-01T12:38:37;19.93;;;13.60;;
6661;SDS011;3367;48.714;8.994;2023-03-01T12:41:21;26.13;;;14.97;;
6661;SDS011;3367;48.714;8.994;2023-03-01T12:44:01;22.03;;;14.20;;
6661;SDS011;3367;48.714;8.994;2023-03-01T12:46:43;21.97;;;13.07;;
6661;SDS011;3367;48.714;8.994;2023-03-01T12:49:20;19.53;;;12.13;;
6661;SDS011;3367;48.714;8.994;2023-03-01T12:51:53;25.93;;;13.30;;
6661;SDS011;3367;48.714;8.994;2023-03-01T12:54:26;19.50;;;12.33;;
6661;SDS011;3367;48.714;8.994;2023-03-01T12:56:54;20.90;;;12.67;;
6661;SDS011;3367;48.714;8.994;2023-03-01T12:59:24;17.60;;;11.80;;
6661;SDS011;3367;48.714;8.994;2023-03-01T13:02:01;20.50;;;13.80;;
6661;SDS011;3367;48.714;8.994;2023-03-01T13:04:40;20.80;;;12.67;;
6661;SDS011;3367;48.714;8.994;2023-03-01T13:07:29;18.77;;;12.23;;
6661;SDS011;3367;48.714;8.994;2023-03-01T13:10:03;20.10;;;12.73;;
6661;SDS011;3367;48.714;8.994;2023-03-01T13:12:45;20.93;;;12.33;;
6661;SDS011;3367;48.714;8.994;2023-03-01T13:15:29;20.23;;;13.37;;
6661;SDS011;3367;48.714;8.994;2023-03-01T13:17:58;18.97;;;12.10;;
6661;SDS011;3367;48.714;8.994;2023-03-01T13:20:29;18.97;;;12.80;;
6661;SDS011;3367;48.714;8.994;2023-03-01T13:23:02;21.97;;;13.30;;
6661;SDS011;3367;48.714;8.994;2023-03-01T13:25:32;22.63;;;12.77;;
6661;SDS011;3367;48.714;8.994;2023-03-01T13:31:04;25.10;;;13.23;;
6661;SDS011;3367;48.714;8.994;2023-03-01T13:33:33;22.83;;;12.10;;
6661;SDS011;3367;48.714;8.994;2023-03-01T13:36:07;20.63;;;13.30;;
6661;SDS011;3367;48.714;8.994;2023-03-01T13:38:36;17.17;;;11.10;;
6661;SDS011;3367;48.714;8.994;2023-03-01T13:41:04;19.13;;;12.13;;
6661;SDS011;3367;48.714;8.994;2023-03-01T13:43:32;18.13;;;12.37;;
6661;SDS011;3367;48.714;8.994;2023-03-01T13:46:01;22.30;;;11.50;;
6661;SDS011;3367;48.714;8.994;2023-03-01T13:48:35;19.97;;;11.93;;
6661;SDS011;3367;48.714;8.994;2023-03-01T13:51:02;19.17;;;12.80;;
6661;SDS011;3367;48.714;8.994;2023-03-01T13:53:33;20.90;;;13.10;;
6661;SDS011;3367;48.714;8.994;2023-03-01T13:56:03;17.87;;;13.47;;
6661;SDS011;3367;48.714;8.994;2023-03-01T13:58:43;25.20;;;12.97;;
6661;SDS011;3367;48.714;8.994;2023-03-01T14:01:18;22.20;;;12.00;;
6661;SDS011;3367;48.714;8.994;2023-03-01T14:06:31;18.57;;;12.97;;
6661;SDS011;3367;48.714;8.994;2023-03-01T14:09:02;18.70;;;13.10;;
6661;SDS011;3367;48.714;8.994;2023-03-01T14:14:34;20.50;;;13.10;;
6661;SDS011;3367;48.714;8.994;2023-03-01T14:17:10;25.93;;;13.50;;
6661;SDS011;3367;48.714;8.994;2023-03-01T14:19:59;22.40;;;12.77;;
6661;SDS011;3367;48.714;8.994;2023-03-01T14:22:32;23.30;;;13.80;;
6661;SDS011;3367;48.714;8.994;2023-03-01T14:25:01;20.73;;;11.83;;
6661;SDS011;3367;48.714;8.994;2023-03-01T14:27:38;24.47;;;13.53;;
6661;SDS011;3367;48.714;8.994;2023-03-01T14:30:10;27.17;;;13.70;;
6661;SDS011;3367;48.714;8.994;2023-03-01T14:32:40;19.67;;;12.97;;
6661;SDS011;3367;48.714;8.994;2023-03-01T14:35:19;26.33;;;13.60;;
6661;SDS011;3367;48.714;8.994;2023-03-01T14:37:48;19.80;;;13.50;;
6661;SDS011;3367;48.714;8.994;2023-03-01T14:40:25;19.97;;;12.67;;
6661;SDS011;3367;48.714;8.994;2023-03-01T14:42:53;24.67;;;13.80;;
6661;SDS011;3367;48.714;8.994;2023-03-01T14:45:22;26.50;;;13.77;;
6661;SDS011;3367;48.714;8.994;2023-03-01T14:47:51;23.40;;;14.17;;
6661;SDS011;3367;48.714;8.994;2023-03-01T14:50:21;19.53;;;12.83;;
6661;SDS011;3367;48.714;8.994;2023-03-01T14:52:54;23.07;;;13.67;;
6661;SDS011;3367;48.714;8.994;2023-03-01T14:55:25;21.37;;;14.10;;
6661;SDS011;3367;48.714;8.994;2023-03-01T14:57:55;21.00;;;13.00;;
6661;SDS011;3367;48.714;8.994;2023-03-01T15:00:23;20.20;;;13.77;;
6661;SDS011;3367;48.714;8.994;2023-03-01T15:02:53;23.10;;;13.30;;
6661;SDS011;3367;48.714;8.994;2023-03-01T15:05:24;21.80;;;14.00;;
6661;SDS011;3367;48.714;8.994;2023-03-01T15:07:55;24.63;;;13.70;;
6661;SDS011;3367;48.714;8.994;2023-03-01T15:10:23;21.27;;;13.33;;
6661;SDS011;3367;48.714;8.994;2023-03-01T15:12:52;22.87;;;13.47;;
6661;SDS011;3367;48.714;8.994;2023-03-01T15:15:30;21.97;;;14.90;;
6661;SDS011;3367;48.714;8.994;2023-03-01T15:18:02;25.23;;;14.83;;
6661;SDS011;3367;48.714;8.994;2023-03-01T15:20:31;24.87;;;13.67;;